createdAt,value
2022-08-14T00:02:03.661Z,22.77
2022-08-14T00:04:41.959Z,22.83
2022-08-14T00:07:14.114Z,22.87
2022-08-14T00:10:01.895Z,22.91
2022-08-14T00:12:37.770Z,22.96
2022-08-14T00:15:15.354Z,23.01
2022-08-14T00:17:47.269Z,23.03
2022-08-14T00:20:24.165Z,23.06
2022-08-14T00:23:14.677Z,23.08
2022-08-14T00:25:53.752Z,23.08
2022-08-14T00:28:32.497Z,23.06
2022-08-14T00:31:02.604Z,22.93
2022-08-14T00:33:52.496Z,22.92
2022-08-14T00:36:37.695Z,22.79
2022-08-14T00:39:06.469Z,22.76
2022-08-14T00:41:36.877Z,22.71
2022-08-14T00:44:07.446Z,22.71
2022-08-14T00:46:36.991Z,22.69
2022-08-14T00:49:05.740Z,22.61
2022-08-14T00:51:34.826Z,22.63
2022-08-14T00:54:16.854Z,22.63
2022-08-14T00:56:54.802Z,22.66
2022-08-14T00:59:27.523Z,22.70
2022-08-14T01:01:58.487Z,22.77
2022-08-14T01:04:50.963Z,22.83
2022-08-14T01:07:20.624Z,22.90
2022-08-14T01:09:52.766Z,22.92
2022-08-14T01:12:26.913Z,22.97
2022-08-14T01:14:58.758Z,22.98
2022-08-14T01:17:49.589Z,22.99
2022-08-14T01:20:53.336Z,23.03
2022-08-14T01:23:21.699Z,23.03
2022-08-14T01:25:51.027Z,23.01
2022-08-14T01:28:46.314Z,23.03
2022-08-14T01:31:12.226Z,23.01
2022-08-14T01:33:59.636Z,22.98
2022-08-14T01:36:36.597Z,23.00
2022-08-14T01:39:13.318Z,23.01
2022-08-14T01:41:43.229Z,23.03
2022-08-14T01:44:33.234Z,23.06
2022-08-14T01:47:01.997Z,23.09
2022-08-14T01:49:35.261Z,23.08
2022-08-14T01:52:09.051Z,23.07
2022-08-14T01:54:58.165Z,23.08
2022-08-14T01:57:26.407Z,23.08
2022-08-14T02:00:18.758Z,23.10
2022-08-14T02:02:46.879Z,23.11
2022-08-14T02:05:21.337Z,23.12
2022-08-14T02:07:55.879Z,23.14
2022-08-14T02:10:46.288Z,23.16
2022-08-14T02:13:16.675Z,23.18
2022-08-14T02:15:45.734Z,23.20
2022-08-14T02:18:16.372Z,23.23
2022-08-14T02:20:48.302Z,23.21
2022-08-14T02:23:29.129Z,23.20
2022-08-14T02:26:24.017Z,23.12
2022-08-14T02:28:57.941Z,23.02
2022-08-14T02:31:42.516Z,23.00
2022-08-14T02:34:26.345Z,22.97
2022-08-14T02:37:03.924Z,22.97
2022-08-14T02:39:34.658Z,22.96
2022-08-14T02:42:04.436Z,22.98
2022-08-14T02:44:39.550Z,22.99
2022-08-14T02:47:14.741Z,23.00
2022-08-14T02:49:42.915Z,23.02
2022-08-14T02:52:56.049Z,23.04
2022-08-14T02:55:00.804Z,23.03
2022-08-14T02:57:39.958Z,23.05
2022-08-14T03:00:10.117Z,23.05
2022-08-14T03:02:56.444Z,23.05
2022-08-14T03:05:29.331Z,23.04
2022-08-14T03:08:04.751Z,23.04
2022-08-14T03:10:36.990Z,23.04
2022-08-14T03:13:13.805Z,23.04
2022-08-14T03:15:51.026Z,23.05
2022-08-14T03:18:31.960Z,23.07
2022-08-14T03:21:01.437Z,23.06
2022-08-14T03:23:34.071Z,23.04
2022-08-14T03:26:07.213Z,23.04
2022-08-14T03:28:36.612Z,23.03
2022-08-14T03:31:08.346Z,23.01
2022-08-14T03:33:41.295Z,23.01
2022-08-14T03:37:39.038Z,23.02
2022-08-14T03:39:11.592Z,23.02
2022-08-14T03:41:43.869Z,23.05
2022-08-14T03:45:19.078Z,23.07
2022-08-14T03:46:59.689Z,23.08
2022-08-14T03:49:30.801Z,23.11
2022-08-14T03:52:01.329Z,23.13
2022-08-14T03:54:30.396Z,23.17
2022-08-14T03:57:03.008Z,23.19
2022-08-14T03:59:31.806Z,23.21
2022-08-14T04:02:01.700Z,23.23
2022-08-14T04:04:30.769Z,23.25
2022-08-14T04:06:59.871Z,23.26
2022-08-14T04:09:27.798Z,23.28
2022-08-14T04:11:56.288Z,23.31
2022-08-14T04:14:25.896Z,23.34
2022-08-14T04:16:53.539Z,23.38
2022-08-14T04:19:23.982Z,23.42
2022-08-14T04:22:02.415Z,23.47
2022-08-14T04:24:38.449Z,23.52
2022-08-14T04:27:09.575Z,23.57
2022-08-14T04:29:42.810Z,23.62
2022-08-14T04:32:58.211Z,23.68
2022-08-14T04:35:00.951Z,23.75
2022-08-14T04:37:47.219Z,23.78
2022-08-14T04:40:40.762Z,23.79
2022-08-14T04:43:32.452Z,23.78
2022-08-14T04:46:08.506Z,23.75
2022-08-14T04:48:43.277Z,23.74
2022-08-14T04:51:12.395Z,23.75
2022-08-14T04:53:43.917Z,23.81
2022-08-14T04:56:31.227Z,23.89
2022-08-14T04:59:02.302Z,23.95
2022-08-14T05:01:39.995Z,23.98
2022-08-14T05:04:08.764Z,24.03
2022-08-14T05:06:44.094Z,24.07
2022-08-14T05:09:14.324Z,24.09
2022-08-14T05:11:42.549Z,24.10
2022-08-14T05:14:17.326Z,24.11
2022-08-14T05:17:01.828Z,24.11
2022-08-14T05:19:32.555Z,24.14
2022-08-14T05:22:17.265Z,24.17
2022-08-14T05:24:50.368Z,24.21
2022-08-14T05:27:23.153Z,24.26
2022-08-14T05:29:53.278Z,24.33
2022-08-14T05:32:21.567Z,24.43
2022-08-14T05:34:50.502Z,24.56
2022-08-14T05:37:19.079Z,24.71
2022-08-14T05:39:46.980Z,24.95
2022-08-14T05:42:22.014Z,25.15
2022-08-14T05:44:57.499Z,25.29
2022-08-14T05:47:28.549Z,25.41
2022-08-14T05:50:02.271Z,25.53
2022-08-14T05:52:39.335Z,25.60
2022-08-14T05:55:08.299Z,25.70
2022-08-14T05:57:49.035Z,25.75
2022-08-14T06:00:25.026Z,25.77
2022-08-14T06:03:00.009Z,25.76
2022-08-14T06:05:28.823Z,25.83
2022-08-14T06:07:58.043Z,25.93
2022-08-14T06:10:28.334Z,26.03
2022-08-14T06:12:58.053Z,26.13
2022-08-14T06:15:30.025Z,26.14
2022-08-14T06:18:00.103Z,26.10
2022-08-14T06:20:30.029Z,26.14
2022-08-14T06:22:59.089Z,26.27
2022-08-14T06:25:26.914Z,26.54
2022-08-14T06:27:55.937Z,26.79
2022-08-14T06:30:30.376Z,26.99
2022-08-14T06:33:13.714Z,27.14
2022-08-14T06:35:43.527Z,27.24
2022-08-14T06:38:17.385Z,27.32
2022-08-14T06:40:45.964Z,27.35
2022-08-14T06:43:15.195Z,27.30
2022-08-14T06:45:43.718Z,27.24
2022-08-14T06:48:18.961Z,27.22
2022-08-14T06:50:49.769Z,27.33
2022-08-14T06:53:19.903Z,27.39
2022-08-14T06:55:58.111Z,27.46
2022-08-14T06:58:30.928Z,27.57
2022-08-14T07:01:24.943Z,27.73
2022-08-14T07:04:23.908Z,27.94
2022-08-14T07:06:55.530Z,28.03
2022-08-14T07:09:28.326Z,28.02
2022-08-14T07:12:56.095Z,28.04
2022-08-14T07:15:01.587Z,28.04
2022-08-14T07:17:29.271Z,27.97
2022-08-14T07:19:59.807Z,27.50
2022-08-14T07:22:32.880Z,27.25
2022-08-14T07:25:15.098Z,27.49
2022-08-14T07:27:42.827Z,27.78
2022-08-14T07:30:33.835Z,27.93
2022-08-14T07:32:58.978Z,28.00
2022-08-14T07:35:37.252Z,28.08
2022-08-14T07:38:16.610Z,28.23
2022-08-14T07:40:45.314Z,28.44
2022-08-14T07:43:14.848Z,28.64
2022-08-14T07:45:43.188Z,28.38
2022-08-14T07:48:14.956Z,27.85
2022-08-14T07:50:45.464Z,27.40
2022-08-14T07:53:14.262Z,27.23
2022-08-14T07:55:42.902Z,27.37
2022-08-14T07:58:21.289Z,27.46
2022-08-14T08:00:58.749Z,27.46
2022-08-14T08:03:28.245Z,27.28
2022-08-14T08:05:58.108Z,27.11
2022-08-14T08:08:27.722Z,27.04
2022-08-14T08:11:02.979Z,27.04
2022-08-14T08:13:31.610Z,27.08
2022-08-14T08:16:03.251Z,26.99
2022-08-14T08:18:31.345Z,26.85
2022-08-14T08:21:00.261Z,26.77
2022-08-14T08:23:32.615Z,26.69
2022-08-14T08:26:08.582Z,26.62
2022-08-14T08:28:36.198Z,26.57
2022-08-14T08:31:05.253Z,26.56
2022-08-14T08:33:37.161Z,26.72
2022-08-14T08:36:06.525Z,26.85
2022-08-14T08:39:15.556Z,26.93
2022-08-14T08:41:24.483Z,26.91
2022-08-14T08:43:54.014Z,27.17
2022-08-14T08:46:24.340Z,27.47
2022-08-14T08:51:33.257Z,27.58
2022-08-14T08:54:15.389Z,27.58
2022-08-14T08:56:49.031Z,27.62
2022-08-14T08:59:17.839Z,27.75
2022-08-14T09:01:52.344Z,27.87
2022-08-14T09:04:25.325Z,27.95
2022-08-14T09:07:00.097Z,27.95
2022-08-14T09:09:54.088Z,27.96
2022-08-14T09:12:32.233Z,28.00
2022-08-14T09:15:01.872Z,27.95
2022-08-14T09:17:29.537Z,27.85
2022-08-14T09:19:57.085Z,27.71
2022-08-14T09:22:36.069Z,27.65
2022-08-14T09:25:16.867Z,27.69
2022-08-14T09:27:44.571Z,28.16
2022-08-14T09:30:33.197Z,28.45
2022-08-14T09:33:10.975Z,28.31
2022-08-14T09:35:56.580Z,27.89
2022-08-14T09:38:27.618Z,27.69
2022-08-14T09:41:14.035Z,27.92
2022-08-14T09:43:45.880Z,28.34
2022-08-14T09:46:17.102Z,28.58
2022-08-14T09:48:57.855Z,28.55
2022-08-14T09:51:26.088Z,28.27
2022-08-14T09:54:19.239Z,28.22
2022-08-14T09:56:56.896Z,28.13
2022-08-14T09:59:27.865Z,28.04
2022-08-14T10:01:57.403Z,28.31
2022-08-14T10:04:36.016Z,30.56
2022-08-14T10:07:06.009Z,34.02
2022-08-14T10:09:57.523Z,35.53
2022-08-14T10:12:44.879Z,34.88
2022-08-14T10:15:16.760Z,35.43
2022-08-14T10:17:44.329Z,37.21
2022-08-14T10:20:39.999Z,39.43
2022-08-14T10:23:23.033Z,41.72
2022-08-14T10:25:57.725Z,43.00
2022-08-14T10:28:39.065Z,43.14
2022-08-14T10:31:16.564Z,41.78
2022-08-14T10:34:00.416Z,40.33
2022-08-14T10:36:34.751Z,38.93
2022-08-14T10:39:09.516Z,37.74
2022-08-14T10:41:41.722Z,36.60
2022-08-14T10:44:21.666Z,36.05
2022-08-14T10:47:40.378Z,36.35
2022-08-14T10:49:53.221Z,36.75
2022-08-14T10:52:24.293Z,37.92
2022-08-14T10:54:56.402Z,38.81
2022-08-14T10:57:25.417Z,38.78
2022-08-14T10:59:56.174Z,38.40
2022-08-14T11:02:50.214Z,37.80
2022-08-14T11:05:24.946Z,36.65
2022-08-14T11:07:56.364Z,35.93
2022-08-14T11:10:40.856Z,35.37
2022-08-14T11:13:15.526Z,34.85
2022-08-14T11:15:43.201Z,34.68
2022-08-14T11:18:12.112Z,34.91
2022-08-14T11:20:50.901Z,34.98
2022-08-14T11:23:22.857Z,35.04
2022-08-14T11:25:53.462Z,34.75
2022-08-14T11:28:48.004Z,34.45
2022-08-14T11:31:11.144Z,34.20
2022-08-14T11:33:39.522Z,33.88
2022-08-14T11:36:17.829Z,33.76
2022-08-14T11:38:46.677Z,33.83
2022-08-14T11:41:17.059Z,33.70
2022-08-14T11:43:55.853Z,33.73
2022-08-14T11:46:30.371Z,33.86
2022-08-14T11:49:06.350Z,34.00
2022-08-14T11:51:36.150Z,33.80
2022-08-14T11:54:33.724Z,33.71
2022-08-14T11:57:04.491Z,33.53
2022-08-14T11:59:35.404Z,33.26
2022-08-14T12:02:38.975Z,33.05
2022-08-14T12:05:00.405Z,32.85
2022-08-14T12:07:32.078Z,32.67
2022-08-14T12:09:59.994Z,32.33
2022-08-14T12:12:34.930Z,32.04
2022-08-14T12:15:05.419Z,31.80
2022-08-14T12:17:47.676Z,31.70
2022-08-14T12:20:30.261Z,31.66
2022-08-14T12:23:00.996Z,31.46
2022-08-14T12:25:29.002Z,31.16
2022-08-14T12:27:59.079Z,30.84
2022-08-14T12:30:27.450Z,30.61
2022-08-14T12:33:03.477Z,30.39
2022-08-14T12:35:39.667Z,30.15
2022-08-14T12:38:07.464Z,30.03
2022-08-14T12:40:35.273Z,29.89
2022-08-14T12:43:08.953Z,29.68
2022-08-14T12:45:49.484Z,29.47
2022-08-14T12:48:21.717Z,29.32
2022-08-14T12:50:59.363Z,29.17
2022-08-14T12:53:36.242Z,29.09
2022-08-14T12:56:21.884Z,28.96
2022-08-14T12:58:56.492Z,28.86
2022-08-14T13:01:28.554Z,28.78
2022-08-14T13:04:10.465Z,28.68
2022-08-14T13:06:44.733Z,28.61
2022-08-14T13:09:19.334Z,28.60
2022-08-14T13:11:49.480Z,28.62
2022-08-14T13:14:29.887Z,28.62
2022-08-14T13:16:58.503Z,28.55
2022-08-14T13:19:28.246Z,28.51
2022-08-14T13:22:05.785Z,28.49
2022-08-14T13:24:38.344Z,28.48
2022-08-14T13:27:10.008Z,28.49
2022-08-14T13:29:46.533Z,28.39
2022-08-14T13:32:15.194Z,28.23
2022-08-14T13:34:48.809Z,28.07
2022-08-14T13:37:17.277Z,27.97
2022-08-14T13:39:57.090Z,27.89
2022-08-14T13:42:30.261Z,27.79
2022-08-14T13:45:02.328Z,27.67
2022-08-14T13:47:30.850Z,27.56
2022-08-14T13:50:00.442Z,27.49
2022-08-14T13:52:51.987Z,27.45
2022-08-14T13:55:18.441Z,27.52
2022-08-14T13:57:59.472Z,27.64
2022-08-14T14:00:53.189Z,27.75
2022-08-14T14:03:24.038Z,27.75
2022-08-14T14:05:54.884Z,27.83
2022-08-14T14:08:43.315Z,27.93
2022-08-14T14:11:11.307Z,28.00
2022-08-14T14:13:44.747Z,28.00
2022-08-14T14:16:15.595Z,28.08
2022-08-14T14:18:56.175Z,28.17
2022-08-14T14:21:28.715Z,28.17
2022-08-14T14:23:56.977Z,28.14
2022-08-14T14:26:25.043Z,28.16
2022-08-14T14:28:55.342Z,28.15
2022-08-14T14:31:30.088Z,28.12
2022-08-14T14:34:00.435Z,28.09
2022-08-14T14:36:29.495Z,28.02
2022-08-14T14:38:58.212Z,27.97
2022-08-14T14:41:37.881Z,27.92
2022-08-14T14:44:16.505Z,27.91
2022-08-14T14:46:51.005Z,27.80
2022-08-14T14:49:21.833Z,27.70
2022-08-14T14:51:51.630Z,27.61
2022-08-14T14:54:31.871Z,27.52
2022-08-14T14:57:02.542Z,27.43
2022-08-14T14:59:35.952Z,27.38
2022-08-14T15:02:07.855Z,27.36
2022-08-14T15:04:37.893Z,27.41
2022-08-14T15:07:06.496Z,27.44
2022-08-14T15:09:34.582Z,27.44
2022-08-14T15:12:05.545Z,27.45
2022-08-14T15:14:55.896Z,27.56
2022-08-14T15:17:28.655Z,27.80
2022-08-14T15:20:07.361Z,28.10
2022-08-14T15:22:36.915Z,28.30
2022-08-14T15:25:05.261Z,28.35
2022-08-14T15:27:34.836Z,28.31
2022-08-14T15:30:02.412Z,28.24
2022-08-14T15:32:30.300Z,28.13
2022-08-14T15:35:00.829Z,28.08
2022-08-14T15:37:32.660Z,28.03
2022-08-14T15:40:02.344Z,27.98
2022-08-14T15:42:38.120Z,27.90
2022-08-14T15:45:10.046Z,27.83
2022-08-14T15:47:41.633Z,27.79
2022-08-14T15:50:12.743Z,27.73
2022-08-14T15:52:44.878Z,27.62
2022-08-14T15:55:14.509Z,27.50
2022-08-14T15:58:02.428Z,27.41
2022-08-14T16:00:53.559Z,27.27
2022-08-14T16:03:27.582Z,27.14
2022-08-14T16:06:10.965Z,27.01
2022-08-14T16:08:43.916Z,26.89
2022-08-14T16:11:11.901Z,26.82
2022-08-14T16:13:44.398Z,26.76
2022-08-14T16:16:47.545Z,26.70
2022-08-14T16:18:59.578Z,26.63
2022-08-14T16:21:31.571Z,26.57
2022-08-14T16:23:59.985Z,26.52
2022-08-14T16:26:30.095Z,26.48
2022-08-14T16:29:15.572Z,26.49
2022-08-14T16:31:44.857Z,26.93
2022-08-14T16:34:45.014Z,27.37
2022-08-14T16:37:03.167Z,27.46
2022-08-14T16:39:30.907Z,27.23
2022-08-14T16:42:00.582Z,27.02
2022-08-14T16:44:41.680Z,26.91
2022-08-14T16:47:17.466Z,27.22
2022-08-14T16:50:04.311Z,27.58
2022-08-14T16:52:44.124Z,27.87
2022-08-14T16:55:13.788Z,28.06
2022-08-14T16:57:52.002Z,28.18
2022-08-14T17:00:43.493Z,28.14
2022-08-14T17:03:12.386Z,27.74
2022-08-14T17:05:42.946Z,27.42
2022-08-14T17:08:33.052Z,27.18
2022-08-14T17:11:01.716Z,26.97
2022-08-14T17:14:00.027Z,26.81
2022-08-14T17:16:26.006Z,26.67
2022-08-14T17:19:00.782Z,26.57
2022-08-14T17:21:32.668Z,26.47
2022-08-14T17:24:56.043Z,26.40
2022-08-14T17:26:55.201Z,26.31
2022-08-14T17:29:29.447Z,26.23
2022-08-14T17:32:29.257Z,26.13
2022-08-14T17:35:10.076Z,26.31
2022-08-14T17:37:44.890Z,26.75
2022-08-14T17:40:15.934Z,27.10
2022-08-14T17:42:53.347Z,27.30
2022-08-14T17:45:28.144Z,27.46
2022-08-14T17:47:59.062Z,27.51
2022-08-14T17:50:55.121Z,27.27
2022-08-14T17:53:30.515Z,26.80
2022-08-14T17:56:00.935Z,26.49
2022-08-14T17:58:38.549Z,26.25
2022-08-14T18:01:12.682Z,26.05
2022-08-14T18:03:50.195Z,25.88
2022-08-14T18:06:38.709Z,25.71
2022-08-14T18:09:25.234Z,25.53
2022-08-14T18:11:55.501Z,25.34
2022-08-14T18:14:32.204Z,25.16
2022-08-14T18:17:11.725Z,25.06
2022-08-14T18:19:41.620Z,25.38
2022-08-14T18:22:23.872Z,25.73
2022-08-14T18:24:57.353Z,25.99
2022-08-14T18:27:36.382Z,26.14
2022-08-14T18:30:33.119Z,26.25
2022-08-14T18:32:55.343Z,26.31
2022-08-14T18:35:46.370Z,26.35
2022-08-14T18:38:25.963Z,26.41
2022-08-14T18:40:54.905Z,26.49
2022-08-14T18:43:43.082Z,26.55
2022-08-14T18:46:59.563Z,26.61
2022-08-14T18:49:13.244Z,26.67
2022-08-14T18:51:45.237Z,26.68
2022-08-14T18:54:27.015Z,26.66
2022-08-14T18:57:01.414Z,26.65
2022-08-14T18:59:35.723Z,26.66
2022-08-14T19:02:22.402Z,26.68
2022-08-14T19:05:02.794Z,26.71
2022-08-14T19:07:33.217Z,26.73
2022-08-14T19:10:03.464Z,26.74
2022-08-14T19:12:50.114Z,26.74
2022-08-14T19:15:19.897Z,26.68
2022-08-14T19:18:14.366Z,26.63
2022-08-14T19:20:52.880Z,26.42
2022-08-14T19:23:23.117Z,26.33
2022-08-14T19:26:36.255Z,26.42
2022-08-14T19:29:19.969Z,26.42
2022-08-14T19:31:55.237Z,26.43
2022-08-14T19:34:35.352Z,26.44
2022-08-14T19:37:05.942Z,26.43
2022-08-14T19:39:47.513Z,26.42
2022-08-14T19:42:46.739Z,26.40
2022-08-14T19:45:14.894Z,26.33
2022-08-14T19:47:42.794Z,26.15
2022-08-14T19:50:31.133Z,25.68
2022-08-14T19:53:11.416Z,25.10
2022-08-14T19:55:45.849Z,24.68
2022-08-14T19:58:13.703Z,24.36
2022-08-14T20:00:52.305Z,24.21
2022-08-14T20:03:24.234Z,24.47
2022-08-14T20:06:05.571Z,24.74
2022-08-14T20:11:01.102Z,24.89
2022-08-14T20:12:00.590Z,24.95
2022-08-14T20:14:29.487Z,24.97
2022-08-14T20:17:05.614Z,24.97
2022-08-14T20:19:37.861Z,24.91
2022-08-14T20:22:36.386Z,24.87
2022-08-14T20:25:10.400Z,24.86
2022-08-14T20:27:40.052Z,24.86
2022-08-14T20:30:29.776Z,24.89
2022-08-14T20:32:56.769Z,24.94
2022-08-14T20:35:36.300Z,24.97
2022-08-14T20:38:30.538Z,25.02
2022-08-14T20:40:53.601Z,25.05
2022-08-14T20:43:48.288Z,25.07
2022-08-14T20:46:29.456Z,25.07
2022-08-14T20:49:08.737Z,25.06
2022-08-14T20:51:47.440Z,25.03
2022-08-14T20:54:33.543Z,25.02
2022-08-14T20:57:09.293Z,25.00
2022-08-14T20:59:43.458Z,24.99
2022-08-14T21:02:38.850Z,24.99
2022-08-14T21:05:19.538Z,24.97
2022-08-14T21:07:51.287Z,24.92
2022-08-14T21:10:33.782Z,24.87
2022-08-14T21:13:11.902Z,24.82
2022-08-14T21:15:56.672Z,24.77
2022-08-14T21:18:28.853Z,24.74
2022-08-14T21:20:57.790Z,24.70
2022-08-14T21:23:27.301Z,24.65
2022-08-14T21:26:00.292Z,24.62
2022-08-14T21:28:30.172Z,24.59
2022-08-14T21:31:03.179Z,24.57
2022-08-14T21:33:30.899Z,24.54
2022-08-14T21:35:59.339Z,24.49
2022-08-14T21:38:38.097Z,24.39
2022-08-14T21:41:50.049Z,24.33
2022-08-14T21:44:17.717Z,24.26
2022-08-14T21:46:49.833Z,24.23
2022-08-14T21:49:38.318Z,24.17
2022-08-14T21:52:50.532Z,24.00
2022-08-14T21:54:59.481Z,23.88
2022-08-14T21:58:45.972Z,23.76
2022-08-14T22:00:36.061Z,23.72
2022-08-14T22:03:05.830Z,23.69
2022-08-14T22:05:33.655Z,23.69
2022-08-14T22:08:21.595Z,23.66
2022-08-14T22:10:54.681Z,23.63
2022-08-14T22:13:24.697Z,23.61
2022-08-14T22:15:58.200Z,23.59
2022-08-14T22:18:30.024Z,23.55
2022-08-14T22:20:57.896Z,23.54
2022-08-14T22:23:26.025Z,23.53
2022-08-14T22:25:55.257Z,23.51
2022-08-14T22:28:25.405Z,23.48
2022-08-14T22:30:54.798Z,23.47
2022-08-14T22:33:31.097Z,23.45
2022-08-14T22:36:00.467Z,23.43
2022-08-14T22:38:37.879Z,23.41
2022-08-14T22:41:27.682Z,23.36
2022-08-14T22:43:56.133Z,23.30
2022-08-14T22:46:23.698Z,23.25
2022-08-14T22:48:51.861Z,23.20
2022-08-14T22:51:21.465Z,23.17
2022-08-14T22:53:52.378Z,23.12
2022-08-14T22:56:22.066Z,23.08
2022-08-14T22:58:53.872Z,22.99
2022-08-14T23:01:23.650Z,22.86
2022-08-14T23:03:51.866Z,22.79
2022-08-14T23:07:02.965Z,22.69
2022-08-14T23:09:36.490Z,22.58
2022-08-14T23:11:56.672Z,22.49
2022-08-14T23:14:29.516Z,22.41
2022-08-14T23:16:58.520Z,22.37
2022-08-14T23:19:33.565Z,22.36
2022-08-14T23:22:03.628Z,22.36
2022-08-14T23:24:31.392Z,22.41
2022-08-14T23:27:00.591Z,22.46
2022-08-14T23:29:31.393Z,22.50
2022-08-14T23:31:59.445Z,22.54
2022-08-14T23:34:29.605Z,22.60
2022-08-14T23:36:57.876Z,22.64
2022-08-14T23:39:29.731Z,22.69
2022-08-14T23:42:02.290Z,22.74
2022-08-14T23:44:35.278Z,22.78
2022-08-14T23:47:11.857Z,22.83
2022-08-14T23:49:56.908Z,22.87
2022-08-14T23:53:06.038Z,22.89
2022-08-14T23:55:17.754Z,22.91
2022-08-14T23:57:57.623Z,22.92
